sensor_id;sensor_type;location;lat;lon;timestamp;temperature;humidity
66312;HTU21D;53114;51.138;6.008;2023-04-15T00:01:26;6.45;118.99
66312;HTU21D;53114;51.138;6.008;2023-04-15T00:03:53;6.41;118.99
66312;HTU21D;53114;51.138;6.008;2023-04-15T00:06:20;6.36;118.99
66312;HTU21D;53114;51.138;6.008;2023-04-15T00:08:47;6.31;118.99
66312;HTU21D;53114;51.138;6.008;2023-04-15T00:11:13;6.34;118.99
66312;HTU21D;53114;51.138;6.008;2023-04-15T00:13:39;6.34;118.99
66312;HTU21D;53114;51.138;6.008;2023-04-15T00:16:06;6.33;118.99
66312;HTU21D;53114;51.138;6.008;2023-04-15T00:18:33;6.34;118.99
66312;HTU21D;53114;51.138;6.008;2023-04-15T00:20:59;6.37;118.99
66312;HTU21D;53114;51.138;6.008;2023-04-15T00:23:27;6.39;118.99
66312;HTU21D;53114;51.138;6.008;2023-04-15T00:25:53;6.40;118.99
66312;HTU21D;53114;51.138;6.008;2023-04-15T00:28:19;6.43;118.99
66312;HTU21D;53114;51.138;6.008;2023-04-15T00:30:45;6.45;118.99
66312;HTU21D;53114;51.138;6.008;2023-04-15T00:33:13;6.39;118.99
66312;HTU21D;53114;51.138;6.008;2023-04-15T00:35:39;6.34;118.99
66312;HTU21D;53114;51.138;6.008;2023-04-15T00:38:06;6.22;118.99
66312;HTU21D;53114;51.138;6.008;2023-04-15T00:40:35;6.15;118.99
66312;HTU21D;53114;51.138;6.008;2023-04-15T00:43:02;6.11;118.99
66312;HTU21D;53114;51.138;6.008;2023-04-15T00:45:29;6.00;118.99
66312;HTU21D;53114;51.138;6.008;2023-04-15T00:47:55;5.92;118.99
66312;HTU21D;53114;51.138;6.008;2023-04-15T00:50:21;5.92;118.99
66312;HTU21D;53114;51.138;6.008;2023-04-15T00:52:47;5.90;118.99
66312;HTU21D;53114;51.138;6.008;2023-04-15T00:55:14;5.86;118.99
66312;HTU21D;53114;51.138;6.008;2023-04-15T00:57:41;5.83;118.99
66312;HTU21D;53114;51.138;6.008;2023-04-15T01:00:07;5.84;118.99
66312;HTU21D;53114;51.138;6.008;2023-04-15T01:02:34;5.86;118.99
66312;HTU21D;53114;51.138;6.008;2023-04-15T01:05:02;5.85;118.99
66312;HTU21D;53114;51.138;6.008;2023-04-15T01:07:29;5.86;118.99
66312;HTU21D;53114;51.138;6.008;2023-04-15T01:09:55;5.91;118.99
66312;HTU21D;53114;51.138;6.008;2023-04-15T01:12:23;5.92;118.99
66312;HTU21D;53114;51.138;6.008;2023-04-15T01:14:52;5.93;118.99
66312;HTU21D;53114;51.138;6.008;2023-04-15T01:17:18;5.92;118.99
66312;HTU21D;53114;51.138;6.008;2023-04-15T01:19:44;5.86;118.99
66312;HTU21D;53114;51.138;6.008;2023-04-15T01:22:11;5.85;118.99
66312;HTU21D;53114;51.138;6.008;2023-04-15T01:24:37;5.87;118.99
66312;HTU21D;53114;51.138;6.008;2023-04-15T01:27:04;5.90;118.99
66312;HTU21D;53114;51.138;6.008;2023-04-15T01:29:31;5.87;118.99
66312;HTU21D;53114;51.138;6.008;2023-04-15T01:31:58;5.80;118.99
66312;HTU21D;53114;51.138;6.008;2023-04-15T01:34:44;5.72;118.99
66312;HTU21D;53114;51.138;6.008;2023-04-15T01:37:29;5.66;118.99
66312;HTU21D;53114;51.138;6.008;2023-04-15T01:39:55;5.57;118.99
66312;HTU21D;53114;51.138;6.008;2023-04-15T01:42:22;5.50;118.99
66312;HTU21D;53114;51.138;6.008;2023-04-15T01:44:50;5.47;118.99
66312;HTU21D;53114;51.138;6.008;2023-04-15T01:47:17;5.50;118.99
66312;HTU21D;53114;51.138;6.008;2023-04-15T01:49:44;5.49;118.99
66312;HTU21D;53114;51.138;6.008;2023-04-15T01:52:11;5.49;118.99
66312;HTU21D;53114;51.138;6.008;2023-04-15T01:54:40;5.52;118.99
66312;HTU21D;53114;51.138;6.008;2023-04-15T01:57:07;5.57;118.99
66312;HTU21D;53114;51.138;6.008;2023-04-15T01:59:35;5.62;118.99
66312;HTU21D;53114;51.138;6.008;2023-04-15T02:02:03;5.64;118.99
66312;HTU21D;53114;51.138;6.008;2023-04-15T02:04:31;5.64;118.99
66312;HTU21D;53114;51.138;6.008;2023-04-15T02:07:00;5.60;118.99
66312;HTU21D;53114;51.138;6.008;2023-04-15T02:09:27;5.60;118.99
66312;HTU21D;53114;51.138;6.008;2023-04-15T02:11:55;5.59;118.99
66312;HTU21D;53114;51.138;6.008;2023-04-15T02:14:23;5.51;118.99
66312;HTU21D;53114;51.138;6.008;2023-04-15T02:16:51;5.45;118.99
66312;HTU21D;53114;51.138;6.008;2023-04-15T02:19:18;5.39;118.99
66312;HTU21D;53114;51.138;6.008;2023-04-15T02:21:45;5.32;118.99
66312;HTU21D;53114;51.138;6.008;2023-04-15T02:24:12;5.30;118.99
66312;HTU21D;53114;51.138;6.008;2023-04-15T02:26:41;5.31;118.99
66312;HTU21D;53114;51.138;6.008;2023-04-15T02:29:08;5.33;118.99
66312;HTU21D;53114;51.138;6.008;2023-04-15T02:31:35;5.36;118.99
66312;HTU21D;53114;51.138;6.008;2023-04-15T02:34:06;5.34;118.99
66312;HTU21D;53114;51.138;6.008;2023-04-15T02:36:33;5.34;118.99
66312;HTU21D;53114;51.138;6.008;2023-04-15T02:39:01;5.42;118.99
66312;HTU21D;53114;51.138;6.008;2023-04-15T02:41:29;5.50;118.99
66312;HTU21D;53114;51.138;6.008;2023-04-15T02:43:57;5.53;118.99
66312;HTU21D;53114;51.138;6.008;2023-04-15T02:46:24;5.59;118.99
66312;HTU21D;53114;51.138;6.008;2023-04-15T02:48:52;5.65;118.99
66312;HTU21D;53114;51.138;6.008;2023-04-15T02:51:21;5.71;118.99
66312;HTU21D;53114;51.138;6.008;2023-04-15T02:53:49;5.71;118.99
66312;HTU21D;53114;51.138;6.008;2023-04-15T02:56:16;5.67;118.99
66312;HTU21D;53114;51.138;6.008;2023-04-15T02:58:45;5.64;118.99
66312;HTU21D;53114;51.138;6.008;2023-04-15T03:01:12;5.60;118.99
66312;HTU21D;53114;51.138;6.008;2023-04-15T03:03:41;5.60;118.99
66312;HTU21D;53114;51.138;6.008;2023-04-15T03:06:08;5.53;118.99
66312;HTU21D;53114;51.138;6.008;2023-04-15T03:08:35;5.50;118.99
66312;HTU21D;53114;51.138;6.008;2023-04-15T03:11:03;5.48;118.99
66312;HTU21D;53114;51.138;6.008;2023-04-15T03:13:31;5.45;118.99
66312;HTU21D;53114;51.138;6.008;2023-04-15T03:16:02;5.43;118.99
66312;HTU21D;53114;51.138;6.008;2023-04-15T03:18:30;5.43;118.99
66312;HTU21D;53114;51.138;6.008;2023-04-15T03:21:01;5.40;118.99
66312;HTU21D;53114;51.138;6.008;2023-04-15T03:23:30;5.39;118.99
66312;HTU21D;53114;51.138;6.008;2023-04-15T03:26:01;5.38;118.99
66312;HTU21D;53114;51.138;6.008;2023-04-15T03:28:29;5.33;118.99
66312;HTU21D;53114;51.138;6.008;2023-04-15T03:30:58;5.30;118.99
66312;HTU21D;53114;51.138;6.008;2023-04-15T03:33:25;5.32;118.99
66312;HTU21D;53114;51.138;6.008;2023-04-15T03:35:52;5.32;118.99
66312;HTU21D;53114;51.138;6.008;2023-04-15T03:38:19;5.32;118.99
66312;HTU21D;53114;51.138;6.008;2023-04-15T03:40:46;5.32;118.99
66312;HTU21D;53114;51.138;6.008;2023-04-15T03:43:14;5.34;118.99
66312;HTU21D;53114;51.138;6.008;2023-04-15T03:45:41;5.32;118.99
66312;HTU21D;53114;51.138;6.008;2023-04-15T03:48:08;5.31;118.99
66312;HTU21D;53114;51.138;6.008;2023-04-15T03:50:35;5.26;118.99
66312;HTU21D;53114;51.138;6.008;2023-04-15T03:53:02;5.21;118.99
66312;HTU21D;53114;51.138;6.008;2023-04-15T03:55:29;5.20;118.99
66312;HTU21D;53114;51.138;6.008;2023-04-15T03:57:56;5.18;118.99
66312;HTU21D;53114;51.138;6.008;2023-04-15T04:00:23;5.15;118.99
66312;HTU21D;53114;51.138;6.008;2023-04-15T04:02:51;5.08;118.99
66312;HTU21D;53114;51.138;6.008;2023-04-15T04:05:18;5.06;118.99
66312;HTU21D;53114;51.138;6.008;2023-04-15T04:07:45;5.01;118.99
66312;HTU21D;53114;51.138;6.008;2023-04-15T04:10:13;5.04;118.99
66312;HTU21D;53114;51.138;6.008;2023-04-15T04:12:40;5.07;118.99
66312;HTU21D;53114;51.138;6.008;2023-04-15T04:15:07;5.09;118.99
66312;HTU21D;53114;51.138;6.008;2023-04-15T04:17:35;5.10;118.99
66312;HTU21D;53114;51.138;6.008;2023-04-15T04:20:02;5.10;118.99
66312;HTU21D;53114;51.138;6.008;2023-04-15T04:22:29;5.08;118.99
66312;HTU21D;53114;51.138;6.008;2023-04-15T04:24:57;5.08;118.99
66312;HTU21D;53114;51.138;6.008;2023-04-15T04:27:25;5.10;118.99
66312;HTU21D;53114;51.138;6.008;2023-04-15T04:29:52;5.12;118.99
66312;HTU21D;53114;51.138;6.008;2023-04-15T04:32:19;5.15;118.99
66312;HTU21D;53114;51.138;6.008;2023-04-15T04:34:47;5.16;118.99
66312;HTU21D;53114;51.138;6.008;2023-04-15T04:37:14;5.09;118.99
66312;HTU21D;53114;51.138;6.008;2023-04-15T04:39:41;5.10;118.99
66312;HTU21D;53114;51.138;6.008;2023-04-15T04:42:08;5.06;118.99
66312;HTU21D;53114;51.138;6.008;2023-04-15T04:44:35;5.04;118.99
66312;HTU21D;53114;51.138;6.008;2023-04-15T04:47:03;4.96;118.99
66312;HTU21D;53114;51.138;6.008;2023-04-15T04:49:30;4.94;118.99
66312;HTU21D;53114;51.138;6.008;2023-04-15T04:51:57;4.92;118.99
66312;HTU21D;53114;51.138;6.008;2023-04-15T04:54:25;4.92;118.99
66312;HTU21D;53114;51.138;6.008;2023-04-15T04:56:53;4.91;118.99
66312;HTU21D;53114;51.138;6.008;2023-04-15T04:59:20;4.86;118.99
66312;HTU21D;53114;51.138;6.008;2023-04-15T05:01:47;4.87;118.99
66312;HTU21D;53114;51.138;6.008;2023-04-15T05:04:15;4.87;118.99
66312;HTU21D;53114;51.138;6.008;2023-04-15T05:06:42;4.88;118.99
66312;HTU21D;53114;51.138;6.008;2023-04-15T05:09:09;4.90;118.99
66312;HTU21D;53114;51.138;6.008;2023-04-15T05:11:36;4.86;118.99
66312;HTU21D;53114;51.138;6.008;2023-04-15T05:14:03;4.84;118.99
66312;HTU21D;53114;51.138;6.008;2023-04-15T05:16:30;4.84;118.99
66312;HTU21D;53114;51.138;6.008;2023-04-15T05:18:57;4.78;118.99
66312;HTU21D;53114;51.138;6.008;2023-04-15T05:21:24;4.75;118.99
66312;HTU21D;53114;51.138;6.008;2023-04-15T05:23:52;4.76;118.99
66312;HTU21D;53114;51.138;6.008;2023-04-15T05:26:19;4.80;118.99
66312;HTU21D;53114;51.138;6.008;2023-04-15T05:28:47;4.88;118.99
66312;HTU21D;53114;51.138;6.008;2023-04-15T05:31:14;4.96;118.99
66312;HTU21D;53114;51.138;6.008;2023-04-15T05:33:42;5.03;118.99
66312;HTU21D;53114;51.138;6.008;2023-04-15T05:36:09;5.09;118.99
66312;HTU21D;53114;51.138;6.008;2023-04-15T05:38:36;5.18;118.99
66312;HTU21D;53114;51.138;6.008;2023-04-15T05:41:03;5.28;118.99
66312;HTU21D;53114;51.138;6.008;2023-04-15T05:43:30;5.40;118.99
66312;HTU21D;53114;51.138;6.008;2023-04-15T05:45:57;5.52;118.99
66312;HTU21D;53114;51.138;6.008;2023-04-15T05:48:24;5.62;118.99
66312;HTU21D;53114;51.138;6.008;2023-04-15T05:50:52;5.71;118.99
66312;HTU21D;53114;51.138;6.008;2023-04-15T05:53:19;5.83;118.99
66312;HTU21D;53114;51.138;6.008;2023-04-15T05:55:47;5.95;118.99
66312;HTU21D;53114;51.138;6.008;2023-04-15T05:58:14;6.09;118.99
66312;HTU21D;53114;51.138;6.008;2023-04-15T06:00:41;6.15;118.99
66312;HTU21D;53114;51.138;6.008;2023-04-15T06:03:09;6.19;118.99
66312;HTU21D;53114;51.138;6.008;2023-04-15T06:05:37;6.27;118.99
66312;HTU21D;53114;51.138;6.008;2023-04-15T06:08:05;6.39;118.99
66312;HTU21D;53114;51.138;6.008;2023-04-15T06:10:34;6.54;118.99
66312;HTU21D;53114;51.138;6.008;2023-04-15T06:13:03;6.67;118.99
66312;HTU21D;53114;51.138;6.008;2023-04-15T06:15:30;6.72;118.99
66312;HTU21D;53114;51.138;6.008;2023-04-15T06:17:57;6.79;118.99
66312;HTU21D;53114;51.138;6.008;2023-04-15T06:20:24;6.88;118.99
66312;HTU21D;53114;51.138;6.008;2023-04-15T06:22:52;7.00;118.99
66312;HTU21D;53114;51.138;6.008;2023-04-15T06:25:19;7.10;118.99
66312;HTU21D;53114;51.138;6.008;2023-04-15T06:27:46;7.29;118.99
66312;HTU21D;53114;51.138;6.008;2023-04-15T06:30:14;7.44;118.99
66312;HTU21D;53114;51.138;6.008;2023-04-15T06:32:41;7.56;118.99
66312;HTU21D;53114;51.138;6.008;2023-04-15T06:35:08;7.75;118.99
66312;HTU21D;53114;51.138;6.008;2023-04-15T06:37:35;7.93;118.99
66312;HTU21D;53114;51.138;6.008;2023-04-15T06:40:03;8.09;118.99
66312;HTU21D;53114;51.138;6.008;2023-04-15T06:42:29;8.30;118.99
66312;HTU21D;53114;51.138;6.008;2023-04-15T06:44:56;8.57;118.99
66312;HTU21D;53114;51.138;6.008;2023-04-15T06:47:24;8.77;118.99
66312;HTU21D;53114;51.138;6.008;2023-04-15T06:49:51;9.00;118.99
66312;HTU21D;53114;51.138;6.008;2023-04-15T06:52:18;9.19;118.99
66312;HTU21D;53114;51.138;6.008;2023-04-15T06:54:45;9.34;118.99
66312;HTU21D;53114;51.138;6.008;2023-04-15T06:57:12;9.48;118.99
66312;HTU21D;53114;51.138;6.008;2023-04-15T06:59:39;9.59;118.99
66312;HTU21D;53114;51.138;6.008;2023-04-15T07:02:11;9.74;118.99
66312;HTU21D;53114;51.138;6.008;2023-04-15T07:04:39;9.92;118.99
66312;HTU21D;53114;51.138;6.008;2023-04-15T07:07:06;10.07;118.99
66312;HTU21D;53114;51.138;6.008;2023-04-15T07:09:34;10.27;118.99
66312;HTU21D;53114;51.138;6.008;2023-04-15T07:12:01;10.55;118.99
66312;HTU21D;53114;51.138;6.008;2023-04-15T07:14:28;10.73;118.99
66312;HTU21D;53114;51.138;6.008;2023-04-15T07:16:55;10.87;118.99
66312;HTU21D;53114;51.138;6.008;2023-04-15T07:19:23;10.99;118.99
66312;HTU21D;53114;51.138;6.008;2023-04-15T07:21:50;11.14;118.99
66312;HTU21D;53114;51.138;6.008;2023-04-15T07:24:17;11.20;118.99
66312;HTU21D;53114;51.138;6.008;2023-04-15T07:26:45;11.30;118.99
66312;HTU21D;53114;51.138;6.008;2023-04-15T07:29:13;11.40;118.99
66312;HTU21D;53114;51.138;6.008;2023-04-15T07:31:40;11.46;118.99
66312;HTU21D;53114;51.138;6.008;2023-04-15T07:34:08;11.60;118.99
66312;HTU21D;53114;51.138;6.008;2023-04-15T07:36:35;11.90;118.99
66312;HTU21D;53114;51.138;6.008;2023-04-15T07:39:02;12.11;118.99
66312;HTU21D;53114;51.138;6.008;2023-04-15T07:41:30;12.28;118.32
66312;HTU21D;53114;51.138;6.008;2023-04-15T07:43:57;12.51;117.12
66312;HTU21D;53114;51.138;6.008;2023-04-15T07:46:24;12.81;113.27
66312;HTU21D;53114;51.138;6.008;2023-04-15T07:48:53;13.27;113.07
66312;HTU21D;53114;51.138;6.008;2023-04-15T07:51:20;13.99;107.61
66312;HTU21D;53114;51.138;6.008;2023-04-15T07:53:48;14.51;102.84
66312;HTU21D;53114;51.138;6.008;2023-04-15T07:56:16;14.80;93.30
66312;HTU21D;53114;51.138;6.008;2023-04-15T07:58:43;14.75;93.34
66312;HTU21D;53114;51.138;6.008;2023-04-15T08:01:10;14.68;91.24
66312;HTU21D;53114;51.138;6.008;2023-04-15T08:03:37;14.40;91.72
66312;HTU21D;53114;51.138;6.008;2023-04-15T08:06:05;14.28;94.59
66312;HTU21D;53114;51.138;6.008;2023-04-15T08:08:32;14.35;96.05
66312;HTU21D;53114;51.138;6.008;2023-04-15T08:10:59;14.55;96.17
66312;HTU21D;53114;51.138;6.008;2023-04-15T08:13:26;15.09;90.14
66312;HTU21D;53114;51.138;6.008;2023-04-15T08:16:21;15.45;83.10
66312;HTU21D;53114;51.138;6.008;2023-04-15T08:18:49;15.55;81.08
66312;HTU21D;53114;51.138;6.008;2023-04-15T08:21:18;15.75;78.50
66312;HTU21D;53114;51.138;6.008;2023-04-15T08:23:48;15.84;77.46
66312;HTU21D;53114;51.138;6.008;2023-04-15T08:26:19;16.25;77.10
66312;HTU21D;53114;51.138;6.008;2023-04-15T08:28:47;16.70;68.25
66312;HTU21D;53114;51.138;6.008;2023-04-15T08:31:17;16.93;66.41
66312;HTU21D;53114;51.138;6.008;2023-04-15T08:33:44;17.55;64.34
66312;HTU21D;53114;51.138;6.008;2023-04-15T08:36:12;18.08;59.19
66312;HTU21D;53114;51.138;6.008;2023-04-15T08:38:39;18.56;56.58
66312;HTU21D;53114;51.138;6.008;2023-04-15T08:41:19;19.41;52.63
66312;HTU21D;53114;51.138;6.008;2023-04-15T08:44:00;20.17;48.53
66312;HTU21D;53114;51.138;6.008;2023-04-15T08:46:30;20.62;44.09
66312;HTU21D;53114;51.138;6.008;2023-04-15T08:48:58;20.58;43.77
66312;HTU21D;53114;51.138;6.008;2023-04-15T08:51:26;20.87;43.04
66312;HTU21D;53114;51.138;6.008;2023-04-15T08:53:53;21.61;42.39
66312;HTU21D;53114;51.138;6.008;2023-04-15T08:56:23;22.27;39.52
66312;HTU21D;53114;51.138;6.008;2023-04-15T08:58:53;22.78;39.04
66312;HTU21D;53114;51.138;6.008;2023-04-15T09:01:21;23.62;36.72
66312;HTU21D;53114;51.138;6.008;2023-04-15T09:03:48;24.39;34.02
66312;HTU21D;53114;51.138;6.008;2023-04-15T09:06:21;24.59;34.68
66312;HTU21D;53114;51.138;6.008;2023-04-15T09:08:49;25.30;32.84
66312;HTU21D;53114;51.138;6.008;2023-04-15T09:11:18;25.27;32.07
66312;HTU21D;53114;51.138;6.008;2023-04-15T09:13:48;24.63;32.18
66312;HTU21D;53114;51.138;6.008;2023-04-15T09:16:15;23.95;31.78
66312;HTU21D;53114;51.138;6.008;2023-04-15T09:18:42;23.58;33.71
66312;HTU21D;53114;51.138;6.008;2023-04-15T09:21:12;23.42;33.89
66312;HTU21D;53114;51.138;6.008;2023-04-15T09:23:54;23.40;34.81
66312;HTU21D;53114;51.138;6.008;2023-04-15T09:26:36;23.99;34.55
66312;HTU21D;53114;51.138;6.008;2023-04-15T09:29:08;25.00;32.54
66312;HTU21D;53114;51.138;6.008;2023-04-15T09:31:36;25.43;30.10
66312;HTU21D;53114;51.138;6.008;2023-04-15T09:34:03;25.35;30.81
66312;HTU21D;53114;51.138;6.008;2023-04-15T09:39:13;24.30;31.45
66312;HTU21D;53114;51.138;6.008;2023-04-15T09:41:40;23.79;32.44
66312;HTU21D;53114;51.138;6.008;2023-04-15T09:44:24;23.77;32.32
66312;HTU21D;53114;51.138;6.008;2023-04-15T09:46:51;23.41;32.35
66312;HTU21D;53114;51.138;6.008;2023-04-15T09:49:18;22.93;32.93
66312;HTU21D;53114;51.138;6.008;2023-04-15T09:51:46;22.68;34.44
66312;HTU21D;53114;51.138;6.008;2023-04-15T09:54:18;22.92;34.61
66312;HTU21D;53114;51.138;6.008;2023-04-15T09:56:47;23.07;33.92
66312;HTU21D;53114;51.138;6.008;2023-04-15T09:59:14;23.17;33.40
66312;HTU21D;53114;51.138;6.008;2023-04-15T10:01:42;23.24;33.31
66312;HTU21D;53114;51.138;6.008;2023-04-15T10:04:09;23.79;32.52
66312;HTU21D;53114;51.138;6.008;2023-04-15T10:06:38;24.32;31.74
66312;HTU21D;53114;51.138;6.008;2023-04-15T10:09:06;24.74;30.83
66312;HTU21D;53114;51.138;6.008;2023-04-15T10:11:34;25.05;30.00
66312;HTU21D;53114;51.138;6.008;2023-04-15T10:14:01;25.02;29.51
66312;HTU21D;53114;51.138;6.008;2023-04-15T10:16:31;24.77;30.18
66312;HTU21D;53114;51.138;6.008;2023-04-15T10:19:01;25.24;29.64
66312;HTU21D;53114;51.138;6.008;2023-04-15T10:21:29;25.71;28.56
66312;HTU21D;53114;51.138;6.008;2023-04-15T10:23:57;25.79;27.74
66312;HTU21D;53114;51.138;6.008;2023-04-15T10:26:25;24.88;28.58
66312;HTU21D;53114;51.138;6.008;2023-04-15T10:28:53;23.52;30.16
66312;HTU21D;53114;51.138;6.008;2023-04-15T10:31:22;22.31;32.68
66312;HTU21D;53114;51.138;6.008;2023-04-15T10:33:50;21.53;34.21
66312;HTU21D;53114;51.138;6.008;2023-04-15T10:36:18;20.69;36.18
66312;HTU21D;53114;51.138;6.008;2023-04-15T10:38:46;20.12;37.30
66312;HTU21D;53114;51.138;6.008;2023-04-15T10:41:26;19.69;38.94
66312;HTU21D;53114;51.138;6.008;2023-04-15T10:44:03;19.67;38.91
66312;HTU21D;53114;51.138;6.008;2023-04-15T10:46:40;20.00;38.33
66312;HTU21D;53114;51.138;6.008;2023-04-15T10:49:11;20.32;38.46
66312;HTU21D;53114;51.138;6.008;2023-04-15T10:51:46;20.28;38.46
66312;HTU21D;53114;51.138;6.008;2023-04-15T10:59:31;19.67;39.05
66312;HTU21D;53114;51.138;6.008;2023-04-15T11:02:02;19.08;40.87
66312;HTU21D;53114;51.138;6.008;2023-04-15T11:05:05;18.64;42.61
66312;HTU21D;53114;51.138;6.008;2023-04-15T11:12:40;18.84;43.80
66312;HTU21D;53114;51.138;6.008;2023-04-15T11:17:59;19.21;41.77
66312;HTU21D;53114;51.138;6.008;2023-04-15T11:20:34;19.20;42.06
66312;HTU21D;53114;51.138;6.008;2023-04-15T11:23:03;19.12;43.10
66312;HTU21D;53114;51.138;6.008;2023-04-15T11:25:32;18.99;43.55
66312;HTU21D;53114;51.138;6.008;2023-04-15T11:28:00;18.94;43.51
66312;HTU21D;53114;51.138;6.008;2023-04-15T11:30:31;18.79;43.73
66312;HTU21D;53114;51.138;6.008;2023-04-15T11:33:01;18.61;44.28
66312;HTU21D;53114;51.138;6.008;2023-04-15T11:35:29;18.46;44.96
66312;HTU21D;53114;51.138;6.008;2023-04-15T11:37:57;18.17;46.09
66312;HTU21D;53114;51.138;6.008;2023-04-15T11:40:27;17.79;47.18
66312;HTU21D;53114;51.138;6.008;2023-04-15T11:45:58;17.61;49.37
66312;HTU21D;53114;51.138;6.008;2023-04-15T11:48:31;17.59;50.24
66312;HTU21D;53114;51.138;6.008;2023-04-15T11:51:06;17.68;50.58
66312;HTU21D;53114;51.138;6.008;2023-04-15T11:53:37;18.02;46.28
66312;HTU21D;53114;51.138;6.008;2023-04-15T11:56:04;18.19;48.05
66312;HTU21D;53114;51.138;6.008;2023-04-15T11:58:30;18.33;49.11
66312;HTU21D;53114;51.138;6.008;2023-04-15T12:00:57;18.78;47.39
66312;HTU21D;53114;51.138;6.008;2023-04-15T12:03:25;18.93;45.78
66312;HTU21D;53114;51.138;6.008;2023-04-15T12:06:15;18.82;45.57
66312;HTU21D;53114;51.138;6.008;2023-04-15T12:09:02;18.65;45.68
66312;HTU21D;53114;51.138;6.008;2023-04-15T12:11:31;18.50;46.08
66312;HTU21D;53114;51.138;6.008;2023-04-15T12:16:27;18.14;47.32
66312;HTU21D;53114;51.138;6.008;2023-04-15T12:18:55;17.94;48.66
66312;HTU21D;53114;51.138;6.008;2023-04-15T12:21:22;17.89;49.45
66312;HTU21D;53114;51.138;6.008;2023-04-15T12:24:03;18.12;49.82
66312;HTU21D;53114;51.138;6.008;2023-04-15T12:26:55;18.30;48.88
66312;HTU21D;53114;51.138;6.008;2023-04-15T12:29:25;18.33;49.12
66312;HTU21D;53114;51.138;6.008;2023-04-15T12:32:05;18.18;49.47
66312;HTU21D;53114;51.138;6.008;2023-04-15T12:34:38;17.93;49.66
66312;HTU21D;53114;51.138;6.008;2023-04-15T12:37:07;17.70;51.90
66312;HTU21D;53114;51.138;6.008;2023-04-15T12:39:36;17.75;51.91
66312;HTU21D;53114;51.138;6.008;2023-04-15T12:42:03;17.74;51.56
66312;HTU21D;53114;51.138;6.008;2023-04-15T12:44:29;17.53;52.20
66312;HTU21D;53114;51.138;6.008;2023-04-15T12:46:56;17.39;51.45
66312;HTU21D;53114;51.138;6.008;2023-04-15T12:49:23;17.25;52.00
66312;HTU21D;53114;51.138;6.008;2023-04-15T12:51:52;17.23;53.69
66312;HTU21D;53114;51.138;6.008;2023-04-15T12:54:19;17.18;52.97
66312;HTU21D;53114;51.138;6.008;2023-04-15T12:56:46;17.26;52.30
66312;HTU21D;53114;51.138;6.008;2023-04-15T12:59:13;17.35;51.79
66312;HTU21D;53114;51.138;6.008;2023-04-15T13:01:39;17.43;52.26
66312;HTU21D;53114;51.138;6.008;2023-04-15T13:04:06;17.46;52.19
66312;HTU21D;53114;51.138;6.008;2023-04-15T13:06:32;17.38;52.02
66312;HTU21D;53114;51.138;6.008;2023-04-15T13:08:59;17.28;52.64
66312;HTU21D;53114;51.138;6.008;2023-04-15T13:11:27;17.18;52.11
66312;HTU21D;53114;51.138;6.008;2023-04-15T13:13:56;17.35;52.07
66312;HTU21D;53114;51.138;6.008;2023-04-15T13:16:25;17.32;51.11
66312;HTU21D;53114;51.138;6.008;2023-04-15T13:18:51;17.23;51.74
66312;HTU21D;53114;51.138;6.008;2023-04-15T13:21:18;17.30;51.27
66312;HTU21D;53114;51.138;6.008;2023-04-15T13:23:44;17.26;51.40
66312;HTU21D;53114;51.138;6.008;2023-04-15T13:26:10;17.35;51.57
66312;HTU21D;53114;51.138;6.008;2023-04-15T13:28:36;17.49;51.59
66312;HTU21D;53114;51.138;6.008;2023-04-15T13:31:04;17.70;52.33
66312;HTU21D;53114;51.138;6.008;2023-04-15T13:33:30;17.88;51.05
66312;HTU21D;53114;51.138;6.008;2023-04-15T13:35:56;17.91;51.17
66312;HTU21D;53114;51.138;6.008;2023-04-15T13:38:23;18.14;50.22
66312;HTU21D;53114;51.138;6.008;2023-04-15T13:40:50;18.34;48.76
66312;HTU21D;53114;51.138;6.008;2023-04-15T13:43:16;18.55;47.76
66312;HTU21D;53114;51.138;6.008;2023-04-15T13:45:43;18.74;46.70
66312;HTU21D;53114;51.138;6.008;2023-04-15T13:48:09;18.86;45.72
66312;HTU21D;53114;51.138;6.008;2023-04-15T13:50:35;18.91;45.38
66312;HTU21D;53114;51.138;6.008;2023-04-15T13:53:01;18.96;45.58
66312;HTU21D;53114;51.138;6.008;2023-04-15T13:55:27;18.93;45.16
66312;HTU21D;53114;51.138;6.008;2023-04-15T13:57:53;18.78;45.25
66312;HTU21D;53114;51.138;6.008;2023-04-15T14:00:19;18.59;46.22
66312;HTU21D;53114;51.138;6.008;2023-04-15T14:02:45;18.44;46.31
66312;HTU21D;53114;51.138;6.008;2023-04-15T14:05:11;18.11;46.57
66312;HTU21D;53114;51.138;6.008;2023-04-15T14:07:37;17.72;46.57
66312;HTU21D;53114;51.138;6.008;2023-04-15T14:10:03;17.55;47.92
66312;HTU21D;53114;51.138;6.008;2023-04-15T14:12:30;17.52;48.31
66312;HTU21D;53114;51.138;6.008;2023-04-15T14:14:55;17.58;48.57
66312;HTU21D;53114;51.138;6.008;2023-04-15T14:17:21;17.56;49.57
66312;HTU21D;53114;51.138;6.008;2023-04-15T14:19:47;17.30;49.89
66312;HTU21D;53114;51.138;6.008;2023-04-15T14:22:13;16.98;50.88
66312;HTU21D;53114;51.138;6.008;2023-04-15T14:24:41;16.76;52.48
66312;HTU21D;53114;51.138;6.008;2023-04-15T14:27:07;16.74;53.97
66312;HTU21D;53114;51.138;6.008;2023-04-15T14:29:33;16.88;54.55
66312;HTU21D;53114;51.138;6.008;2023-04-15T14:31:59;16.91;54.85
66312;HTU21D;53114;51.138;6.008;2023-04-15T14:34:25;16.87;53.43
66312;HTU21D;53114;51.138;6.008;2023-04-15T14:36:51;16.77;53.65
66312;HTU21D;53114;51.138;6.008;2023-04-15T14:39:18;16.70;53.28
66312;HTU21D;53114;51.138;6.008;2023-04-15T14:41:45;16.60;54.59
66312;HTU21D;53114;51.138;6.008;2023-04-15T14:44:11;16.43;55.61
66312;HTU21D;53114;51.138;6.008;2023-04-15T14:46:38;16.28;56.39
66312;HTU21D;53114;51.138;6.008;2023-04-15T14:49:05;16.21;57.77
66312;HTU21D;53114;51.138;6.008;2023-04-15T14:51:32;16.05;56.93
66312;HTU21D;53114;51.138;6.008;2023-04-15T14:53:58;15.90;59.22
66312;HTU21D;53114;51.138;6.008;2023-04-15T14:56:25;15.83;60.68
66312;HTU21D;53114;51.138;6.008;2023-04-15T14:58:51;15.86;61.49
66312;HTU21D;53114;51.138;6.008;2023-04-15T15:01:19;15.93;61.02
66312;HTU21D;53114;51.138;6.008;2023-04-15T15:03:46;16.03;60.77
66312;HTU21D;53114;51.138;6.008;2023-04-15T15:06:13;16.05;60.77
66312;HTU21D;53114;51.138;6.008;2023-04-15T15:08:40;16.05;60.51
66312;HTU21D;53114;51.138;6.008;2023-04-15T15:11:05;16.05;60.18
66312;HTU21D;53114;51.138;6.008;2023-04-15T15:13:31;16.11;59.14
66312;HTU21D;53114;51.138;6.008;2023-04-15T15:15:57;16.19;58.56
66312;HTU21D;53114;51.138;6.008;2023-04-15T15:18:23;16.34;59.16
66312;HTU21D;53114;51.138;6.008;2023-04-15T15:20:50;16.54;58.69
66312;HTU21D;53114;51.138;6.008;2023-04-15T15:23:16;16.64;58.11
66312;HTU21D;53114;51.138;6.008;2023-04-15T15:25:42;16.62;55.11
66312;HTU21D;53114;51.138;6.008;2023-04-15T15:28:08;16.56;56.63
66312;HTU21D;53114;51.138;6.008;2023-04-15T15:30:35;16.40;57.17
66312;HTU21D;53114;51.138;6.008;2023-04-15T15:33:01;16.27;58.05
66312;HTU21D;53114;51.138;6.008;2023-04-15T15:35:26;16.28;58.43
66312;HTU21D;53114;51.138;6.008;2023-04-15T15:37:52;16.45;59.70
66312;HTU21D;53114;51.138;6.008;2023-04-15T15:40:19;16.60;59.33
66312;HTU21D;53114;51.138;6.008;2023-04-15T15:42:45;16.60;58.06